sensor_id;sensor_type;location;lat;lon;timestamp;P1;durP1;ratioP1;P2;durP2;ratioP2
15889;SDS011;8043;49.388;12.128;2024-01-16T00:00:23;1.55;;;1.45;;
15889;SDS011;8043;49.388;12.128;2024-01-16T00:05:26;0.57;;;0.57;;
15889;SDS011;8043;49.388;12.128;2024-01-16T00:10:29;4.72;;;2.72;;
15889;SDS011;8043;49.388;12.128;2024-01-16T00:15:31;6.55;;;3.52;;
15889;SDS011;8043;49.388;12.128;2024-01-16T00:20:33;3.05;;;1.65;;
15889;SDS011;8043;49.388;12.128;2024-01-16T00:25:36;3.08;;;1.42;;
15889;SDS011;8043;49.388;12.128;2024-01-16T00:30:38;1.27;;;1.27;;
15889;SDS011;8043;49.388;12.128;2024-01-16T00:35:41;1.37;;;1.27;;
15889;SDS011;8043;49.388;12.128;2024-01-16T00:40:43;5.05;;;2.08;;
15889;SDS011;8043;49.388;12.128;2024-01-16T00:45:46;3.15;;;2.10;;
15889;SDS011;8043;49.388;12.128;2024-01-16T00:50:49;1.82;;;1.62;;
15889;SDS011;8043;49.388;12.128;2024-01-16T00:55:53;1.45;;;1.35;;
15889;SDS011;8043;49.388;12.128;2024-01-16T01:05:57;2.08;;;1.87;;
15889;SDS011;8043;49.388;12.128;2024-01-16T01:10:59;1.37;;;1.37;;
15889;SDS011;8043;49.388;12.128;2024-01-16T01:21:03;1.85;;;1.60;;
15889;SDS011;8043;49.388;12.128;2024-01-16T01:31:08;10.25;;;1.80;;
15889;SDS011;8043;49.388;12.128;2024-01-16T01:36:12;2.25;;;1.20;;
15889;SDS011;8043;49.388;12.128;2024-01-16T01:41:16;2.90;;;2.10;;
15889;SDS011;8043;49.388;12.128;2024-01-16T01:46:19;0.80;;;0.80;;
15889;SDS011;8043;49.388;12.128;2024-01-16T01:51:24;1.37;;;1.27;;
15889;SDS011;8043;49.388;12.128;2024-01-16T01:56:31;1.40;;;1.30;;
15889;SDS011;8043;49.388;12.128;2024-01-16T02:01:34;2.12;;;1.92;;
15889;SDS011;8043;49.388;12.128;2024-01-16T02:06:37;0.75;;;0.75;;
15889;SDS011;8043;49.388;12.128;2024-01-16T02:11:39;2.58;;;1.77;;
15889;SDS011;8043;49.388;12.128;2024-01-16T02:16:42;2.65;;;2.17;;
15889;SDS011;8043;49.388;12.128;2024-01-16T02:21:46;1.05;;;1.05;;
15889;SDS011;8043;49.388;12.128;2024-01-16T02:26:49;1.07;;;1.07;;
15889;SDS011;8043;49.388;12.128;2024-01-16T02:36:54;6.47;;;2.07;;
15889;SDS011;8043;49.388;12.128;2024-01-16T02:41:56;0.50;;;0.50;;
15889;SDS011;8043;49.388;12.128;2024-01-16T02:46:58;3.22;;;2.40;;
15889;SDS011;8043;49.388;12.128;2024-01-16T02:52:01;4.78;;;2.87;;
15889;SDS011;8043;49.388;12.128;2024-01-16T02:57:04;5.50;;;1.90;;
15889;SDS011;8043;49.388;12.128;2024-01-16T03:02:06;2.25;;;1.27;;
15889;SDS011;8043;49.388;12.128;2024-01-16T03:07:09;0.33;;;0.33;;
15889;SDS011;8043;49.388;12.128;2024-01-16T03:12:11;10.75;;;2.25;;
15889;SDS011;8043;49.388;12.128;2024-01-16T03:17:13;3.50;;;1.92;;
15889;SDS011;8043;49.388;12.128;2024-01-16T03:22:16;1.00;;;0.90;;
15889;SDS011;8043;49.388;12.128;2024-01-16T03:32:20;1.22;;;1.22;;
15889;SDS011;8043;49.388;12.128;2024-01-16T03:37:23;3.52;;;1.70;;
15889;SDS011;8043;49.388;12.128;2024-01-16T03:47:27;0.72;;;0.72;;
15889;SDS011;8043;49.388;12.128;2024-01-16T03:52:29;4.55;;;2.02;;
15889;SDS011;8043;49.388;12.128;2024-01-16T03:57:31;1.47;;;1.37;;
15889;SDS011;8043;49.388;12.128;2024-01-16T04:02:34;3.85;;;0.88;;
15889;SDS011;8043;49.388;12.128;2024-01-16T04:07:39;10.08;;;2.00;;
15889;SDS011;8043;49.388;12.128;2024-01-16T04:12:41;5.10;;;1.25;;
15889;SDS011;8043;49.388;12.128;2024-01-16T04:17:43;5.20;;;1.42;;
15889;SDS011;8043;49.388;12.128;2024-01-16T04:22:46;4.47;;;2.00;;
15889;SDS011;8043;49.388;12.128;2024-01-16T04:27:48;2.33;;;2.15;;
15889;SDS011;8043;49.388;12.128;2024-01-16T04:32:51;1.65;;;1.52;;
15889;SDS011;8043;49.388;12.128;2024-01-16T04:37:53;1.57;;;1.47;;
15889;SDS011;8043;49.388;12.128;2024-01-16T04:42:56;2.47;;;2.27;;
15889;SDS011;8043;49.388;12.128;2024-01-16T04:53:00;6.85;;;2.52;;
15889;SDS011;8043;49.388;12.128;2024-01-16T04:58:03;0.88;;;0.88;;
15889;SDS011;8043;49.388;12.128;2024-01-16T05:03:06;2.22;;;1.62;;
15889;SDS011;8043;49.388;12.128;2024-01-16T05:08:08;5.65;;;2.22;;
15889;SDS011;8043;49.388;12.128;2024-01-16T05:13:11;2.52;;;1.95;;
15889;SDS011;8043;49.388;12.128;2024-01-16T05:18:13;1.75;;;1.65;;
15889;SDS011;8043;49.388;12.128;2024-01-16T05:23:16;1.82;;;1.72;;
15889;SDS011;8043;49.388;12.128;2024-01-16T05:28:18;3.30;;;2.08;;
15889;SDS011;8043;49.388;12.128;2024-01-16T05:33:21;1.57;;;1.47;;
15889;SDS011;8043;49.388;12.128;2024-01-16T05:43:25;1.10;;;1.05;;
15889;SDS011;8043;49.388;12.128;2024-01-16T05:48:29;4.05;;;2.70;;
15889;SDS011;8043;49.388;12.128;2024-01-16T05:53:32;6.30;;;2.57;;
15889;SDS011;8043;49.388;12.128;2024-01-16T05:58:34;5.85;;;0.90;;
15889;SDS011;8043;49.388;12.128;2024-01-16T06:03:38;3.37;;;2.02;;
15889;SDS011;8043;49.388;12.128;2024-01-16T06:13:43;1.57;;;1.50;;
15889;SDS011;8043;49.388;12.128;2024-01-16T06:18:47;5.55;;;3.52;;
15889;SDS011;8043;49.388;12.128;2024-01-16T06:23:49;1.52;;;1.42;;
15889;SDS011;8043;49.388;12.128;2024-01-16T06:28:52;2.62;;;1.87;;
15889;SDS011;8043;49.388;12.128;2024-01-16T06:38:56;2.92;;;2.27;;
15889;SDS011;8043;49.388;12.128;2024-01-16T06:43:59;1.45;;;1.35;;
15889;SDS011;8043;49.388;12.128;2024-01-16T06:49:01;6.78;;;3.22;;
15889;SDS011;8043;49.388;12.128;2024-01-16T06:54:04;1.85;;;1.72;;
15889;SDS011;8043;49.388;12.128;2024-01-16T06:59:07;3.25;;;2.65;;
15889;SDS011;8043;49.388;12.128;2024-01-16T07:04:09;3.50;;;2.52;;
15889;SDS011;8043;49.388;12.128;2024-01-16T07:09:13;2.30;;;1.87;;
15889;SDS011;8043;49.388;12.128;2024-01-16T07:14:16;2.08;;;1.82;;
15889;SDS011;8043;49.388;12.128;2024-01-16T07:19:19;8.98;;;2.50;;
15889;SDS011;8043;49.388;12.128;2024-01-16T07:24:21;1.42;;;1.27;;
15889;SDS011;8043;49.388;12.128;2024-01-16T07:29:24;6.10;;;2.15;;
15889;SDS011;8043;49.388;12.128;2024-01-16T07:34:26;9.60;;;3.45;;
15889;SDS011;8043;49.388;12.128;2024-01-16T07:39:29;3.02;;;2.25;;
15889;SDS011;8043;49.388;12.128;2024-01-16T07:44:33;2.52;;;2.33;;
15889;SDS011;8043;49.388;12.128;2024-01-16T07:49:43;1.17;;;1.12;;
15889;SDS011;8043;49.388;12.128;2024-01-16T07:54:46;2.08;;;1.55;;
15889;SDS011;8043;49.388;12.128;2024-01-16T07:59:49;1.67;;;1.57;;
15889;SDS011;8043;49.388;12.128;2024-01-16T08:04:51;6.67;;;2.20;;
15889;SDS011;8043;49.388;12.128;2024-01-16T08:09:55;8.93;;;4.28;;
15889;SDS011;8043;49.388;12.128;2024-01-16T08:14:57;2.75;;;2.50;;
15889;SDS011;8043;49.388;12.128;2024-01-16T08:25:01;2.37;;;2.20;;
15889;SDS011;8043;49.388;12.128;2024-01-16T08:30:06;4.15;;;2.15;;
15889;SDS011;8043;49.388;12.128;2024-01-16T08:35:09;10.08;;;2.15;;
15889;SDS011;8043;49.388;12.128;2024-01-16T08:40:11;5.28;;;2.55;;
15889;SDS011;8043;49.388;12.128;2024-01-16T08:45:14;17.62;;;3.60;;
15889;SDS011;8043;49.388;12.128;2024-01-16T08:50:16;3.35;;;1.98;;
15889;SDS011;8043;49.388;12.128;2024-01-16T08:55:19;2.67;;;2.45;;
15889;SDS011;8043;49.388;12.128;2024-01-16T09:00:21;6.37;;;4.12;;
15889;SDS011;8043;49.388;12.128;2024-01-16T09:05:23;7.80;;;2.95;;
15889;SDS011;8043;49.388;12.128;2024-01-16T09:15:28;3.08;;;2.37;;
15889;SDS011;8043;49.388;12.128;2024-01-16T09:20:32;4.15;;;2.10;;
15889;SDS011;8043;49.388;12.128;2024-01-16T09:25:35;10.82;;;4.05;;
15889;SDS011;8043;49.388;12.128;2024-01-16T09:30:38;15.68;;;2.95;;
15889;SDS011;8043;49.388;12.128;2024-01-16T09:35:40;4.55;;;2.08;;
15889;SDS011;8043;49.388;12.128;2024-01-16T09:40:43;5.15;;;2.55;;
15889;SDS011;8043;49.388;12.128;2024-01-16T09:45:46;28.77;;;3.37;;
15889;SDS011;8043;49.388;12.128;2024-01-16T09:50:49;2.98;;;2.15;;
15889;SDS011;8043;49.388;12.128;2024-01-16T09:55:52;5.90;;;3.33;;
15889;SDS011;8043;49.388;12.128;2024-01-16T10:00:56;2.62;;;1.27;;
15889;SDS011;8043;49.388;12.128;2024-01-16T10:11:00;5.83;;;2.25;;
15889;SDS011;8043;49.388;12.128;2024-01-16T10:21:05;2.97;;;0.90;;
15889;SDS011;8043;49.388;12.128;2024-01-16T10:26:11;8.85;;;3.08;;
15889;SDS011;8043;49.388;12.128;2024-01-16T10:31:14;6.72;;;2.35;;
15889;SDS011;8043;49.388;12.128;2024-01-16T10:41:20;3.27;;;2.98;;
15889;SDS011;8043;49.388;12.128;2024-01-16T10:46:24;5.25;;;1.37;;
15889;SDS011;8043;49.388;12.128;2024-01-16T10:51:27;2.90;;;2.60;;
15889;SDS011;8043;49.388;12.128;2024-01-16T10:56:30;2.62;;;2.25;;
15889;SDS011;8043;49.388;12.128;2024-01-16T11:01:33;4.40;;;2.55;;
15889;SDS011;8043;49.388;12.128;2024-01-16T11:06:36;3.37;;;2.17;;
15889;SDS011;8043;49.388;12.128;2024-01-16T11:16:40;1.95;;;1.85;;
15889;SDS011;8043;49.388;12.128;2024-01-16T11:21:43;2.33;;;2.12;;
15889;SDS011;8043;49.388;12.128;2024-01-16T11:26:49;4.12;;;3.20;;
15889;SDS011;8043;49.388;12.128;2024-01-16T11:31:51;4.30;;;2.83;;
15889;SDS011;8043;49.388;12.128;2024-01-16T11:36:54;7.20;;;2.95;;
15889;SDS011;8043;49.388;12.128;2024-01-16T11:41:58;4.83;;;2.22;;
15889;SDS011;8043;49.388;12.128;2024-01-16T11:47:03;4.80;;;2.60;;
15889;SDS011;8043;49.388;12.128;2024-01-16T11:52:06;6.78;;;3.83;;
15889;SDS011;8043;49.388;12.128;2024-01-16T12:02:34;9.63;;;3.90;;
15889;SDS011;8043;49.388;12.128;2024-01-16T12:07:49;5.62;;;2.72;;
15889;SDS011;8043;49.388;12.128;2024-01-16T12:12:56;3.83;;;3.45;;
15889;SDS011;8043;49.388;12.128;2024-01-16T12:18:00;3.08;;;1.98;;
15889;SDS011;8043;49.388;12.128;2024-01-16T12:23:11;7.17;;;3.52;;
15889;SDS011;8043;49.388;12.128;2024-01-16T12:28:14;2.17;;;1.67;;
15889;SDS011;8043;49.388;12.128;2024-01-16T12:33:21;11.83;;;2.22;;
15889;SDS011;8043;49.388;12.128;2024-01-16T12:38:23;5.47;;;2.62;;
15889;SDS011;8043;49.388;12.128;2024-01-16T12:43:25;3.83;;;2.72;;
15889;SDS011;8043;49.388;12.128;2024-01-16T12:48:28;2.52;;;2.30;;
15889;SDS011;8043;49.388;12.128;2024-01-16T12:58:34;2.40;;;2.20;;
15889;SDS011;8043;49.388;12.128;2024-01-16T13:03:38;9.63;;;2.98;;
15889;SDS011;8043;49.388;12.128;2024-01-16T13:08:41;6.67;;;2.90;;
15889;SDS011;8043;49.388;12.128;2024-01-16T13:13:43;7.20;;;3.27;;
15889;SDS011;8043;49.388;12.128;2024-01-16T13:18:47;11.75;;;3.65;;
15889;SDS011;8043;49.388;12.128;2024-01-16T13:23:51;2.45;;;2.25;;
15889;SDS011;8043;49.388;12.128;2024-01-16T13:28:55;14.30;;;3.35;;
15889;SDS011;8043;49.388;12.128;2024-01-16T13:33:58;5.35;;;3.22;;
15889;SDS011;8043;49.388;12.128;2024-01-16T13:39:00;3.52;;;2.08;;
15889;SDS011;8043;49.388;12.128;2024-01-16T13:44:04;3.83;;;2.58;;
15889;SDS011;8043;49.388;12.128;2024-01-16T13:49:07;2.17;;;1.70;;
15889;SDS011;8043;49.388;12.128;2024-01-16T13:54:09;4.45;;;2.02;;
15889;SDS011;8043;49.388;12.128;2024-01-16T13:59:11;3.00;;;2.37;;
15889;SDS011;8043;49.388;12.128;2024-01-16T14:09:16;3.95;;;2.83;;
15889;SDS011;8043;49.388;12.128;2024-01-16T14:14:18;10.78;;;2.55;;
15889;SDS011;8043;49.388;12.128;2024-01-16T14:19:21;8.25;;;4.20;;
15889;SDS011;8043;49.388;12.128;2024-01-16T14:24:25;1.52;;;1.22;;
15889;SDS011;8043;49.388;12.128;2024-01-16T14:29:28;7.03;;;2.05;;
15889;SDS011;8043;49.388;12.128;2024-01-16T14:34:30;3.33;;;1.75;;
15889;SDS011;8043;49.388;12.128;2024-01-16T14:39:32;10.58;;;3.35;;
15889;SDS011;8043;49.388;12.128;2024-01-16T14:44:36;7.37;;;4.00;;
15889;SDS011;8043;49.388;12.128;2024-01-16T14:49:39;4.83;;;2.87;;
15889;SDS011;8043;49.388;12.128;2024-01-16T14:54:41;9.23;;;3.58;;
15889;SDS011;8043;49.388;12.128;2024-01-16T15:04:46;9.85;;;4.97;;
15889;SDS011;8043;49.388;12.128;2024-01-16T15:09:49;4.42;;;3.12;;
15889;SDS011;8043;49.388;12.128;2024-01-16T15:14:53;9.68;;;5.22;;
15889;SDS011;8043;49.388;12.128;2024-01-16T15:19:55;2.33;;;1.82;;
15889;SDS011;8043;49.388;12.128;2024-01-16T15:24:57;2.62;;;2.33;;
15889;SDS011;8043;49.388;12.128;2024-01-16T15:30:06;3.02;;;2.55;;
15889;SDS011;8043;49.388;12.128;2024-01-16T15:35:06;7.62;;;4.20;;
15889;SDS011;8043;49.388;12.128;2024-01-16T15:40:09;6.10;;;3.30;;
15889;SDS011;8043;49.388;12.128;2024-01-16T15:45:13;6.85;;;4.85;;
15889;SDS011;8043;49.388;12.128;2024-01-16T15:50:16;4.45;;;3.33;;
15889;SDS011;8043;49.388;12.128;2024-01-16T15:55:19;16.85;;;6.62;;
15889;SDS011;8043;49.388;12.128;2024-01-16T16:00:22;32.30;;;13.20;;
15889;SDS011;8043;49.388;12.128;2024-01-16T16:05:25;29.87;;;10.48;;
15889;SDS011;8043;49.388;12.128;2024-01-16T16:10:28;14.58;;;8.50;;
15889;SDS011;8043;49.388;12.128;2024-01-16T16:15:30;10.88;;;5.10;;
15889;SDS011;8043;49.388;12.128;2024-01-16T16:20:33;12.43;;;6.28;;
15889;SDS011;8043;49.388;12.128;2024-01-16T16:25:36;17.45;;;7.25;;
15889;SDS011;8043;49.388;12.128;2024-01-16T16:30:41;10.78;;;5.20;;
15889;SDS011;8043;49.388;12.128;2024-01-16T16:40:50;11.18;;;5.83;;
15889;SDS011;8043;49.388;12.128;2024-01-16T16:45:52;13.95;;;7.30;;
15889;SDS011;8043;49.388;12.128;2024-01-16T16:55:56;18.12;;;5.33;;
15889;SDS011;8043;49.388;12.128;2024-01-16T17:01:01;16.55;;;6.60;;
15889;SDS011;8043;49.388;12.128;2024-01-16T17:06:03;5.70;;;4.10;;
15889;SDS011;8043;49.388;12.128;2024-01-16T17:11:13;8.23;;;4.33;;
15889;SDS011;8043;49.388;12.128;2024-01-16T17:21:18;5.33;;;3.30;;
15889;SDS011;8043;49.388;12.128;2024-01-16T17:26:20;11.85;;;4.45;;
15889;SDS011;8043;49.388;12.128;2024-01-16T17:31:23;2.80;;;2.20;;
15889;SDS011;8043;49.388;12.128;2024-01-16T17:36:25;6.10;;;3.40;;
15889;SDS011;8043;49.388;12.128;2024-01-16T17:41:29;4.45;;;3.45;;
15889;SDS011;8043;49.388;12.128;2024-01-16T17:46:31;10.70;;;4.90;;
15889;SDS011;8043;49.388;12.128;2024-01-16T17:51:34;16.80;;;4.80;;
15889;SDS011;8043;49.388;12.128;2024-01-16T17:56:37;10.20;;;4.33;;
15889;SDS011;8043;49.388;12.128;2024-01-16T18:01:39;12.18;;;5.30;;
15889;SDS011;8043;49.388;12.128;2024-01-16T18:06:42;8.75;;;3.90;;
15889;SDS011;8043;49.388;12.128;2024-01-16T18:11:52;11.40;;;4.17;;
15889;SDS011;8043;49.388;12.128;2024-01-16T18:16:57;18.80;;;6.30;;
15889;SDS011;8043;49.388;12.128;2024-01-16T18:22:04;16.10;;;7.50;;
15889;SDS011;8043;49.388;12.128;2024-01-16T18:27:07;11.65;;;6.70;;
15889;SDS011;8043;49.388;12.128;2024-01-16T18:32:10;24.80;;;8.00;;
15889;SDS011;8043;49.388;12.128;2024-01-16T18:37:13;7.08;;;6.40;;
15889;SDS011;8043;49.388;12.128;2024-01-16T18:47:17;14.83;;;6.78;;
15889;SDS011;8043;49.388;12.128;2024-01-16T18:52:21;6.30;;;4.58;;
15889;SDS011;8043;49.388;12.128;2024-01-16T18:57:24;12.90;;;4.72;;
15889;SDS011;8043;49.388;12.128;2024-01-16T19:02:28;9.95;;;4.75;;
15889;SDS011;8043;49.388;12.128;2024-01-16T19:07:30;7.62;;;4.00;;
15889;SDS011;8043;49.388;12.128;2024-01-16T19:12:34;12.70;;;5.80;;
15889;SDS011;8043;49.388;12.128;2024-01-16T19:27:42;2.30;;;2.10;;
15889;SDS011;8043;49.388;12.128;2024-01-16T19:32:50;3.02;;;2.35;;
15889;SDS011;8043;49.388;12.128;2024-01-16T19:37:52;3.10;;;2.85;;
15889;SDS011;8043;49.388;12.128;2024-01-16T19:42:55;13.98;;;3.12;;
15889;SDS011;8043;49.388;12.128;2024-01-16T19:47:59;3.35;;;3.12;;
15889;SDS011;8043;49.388;12.128;2024-01-16T19:53:02;3.17;;;1.95;;
15889;SDS011;8043;49.388;12.128;2024-01-16T19:58:06;4.30;;;2.50;;
15889;SDS011;8043;49.388;12.128;2024-01-16T20:03:10;2.22;;;2.02;;
15889;SDS011;8043;49.388;12.128;2024-01-16T20:08:13;5.45;;;2.67;;
15889;SDS011;8043;49.388;12.128;2024-01-16T20:13:16;3.35;;;2.83;;
15889;SDS011;8043;49.388;12.128;2024-01-16T20:18:19;9.43;;;4.25;;
15889;SDS011;8043;49.388;12.128;2024-01-16T20:23:22;7.95;;;5.37;;
15889;SDS011;8043;49.388;12.128;2024-01-16T20:28:26;6.40;;;5.10;;
15889;SDS011;8043;49.388;12.128;2024-01-16T20:33:28;8.58;;;4.62;;
15889;SDS011;8043;49.388;12.128;2024-01-16T20:38:31;4.97;;;4.50;;
15889;SDS011;8043;49.388;12.128;2024-01-16T20:43:34;4.40;;;3.83;;
15889;SDS011;8043;49.388;12.128;2024-01-16T20:48:37;11.00;;;4.92;;
15889;SDS011;8043;49.388;12.128;2024-01-16T20:53:40;13.53;;;5.07;;
15889;SDS011;8043;49.388;12.128;2024-01-16T20:58:42;4.35;;;3.50;;
15889;SDS011;8043;49.388;12.128;2024-01-16T21:03:45;3.60;;;3.25;;
15889;SDS011;8043;49.388;12.128;2024-01-16T21:08:48;5.55;;;3.10;;
15889;SDS011;8043;49.388;12.128;2024-01-16T21:13:51;7.60;;;3.67;;
15889;SDS011;8043;49.388;12.128;2024-01-16T21:18:58;6.87;;;2.77;;
15889;SDS011;8043;49.388;12.128;2024-01-16T21:24:02;6.08;;;3.75;;
15889;SDS011;8043;49.388;12.128;2024-01-16T21:29:05;4.45;;;2.75;;
15889;SDS011;8043;49.388;12.128;2024-01-16T21:34:07;4.60;;;4.00;;
15889;SDS011;8043;49.388;12.128;2024-01-16T21:39:10;3.70;;;3.22;;
15889;SDS011;8043;49.388;12.128;2024-01-16T21:44:15;31.30;;;5.15;;
15889;SDS011;8043;49.388;12.128;2024-01-16T21:49:19;9.73;;;5.10;;
15889;SDS011;8043;49.388;12.128;2024-01-16T21:54:22;5.72;;;2.95;;
15889;SDS011;8043;49.388;12.128;2024-01-16T21:59:26;4.83;;;4.30;;
15889;SDS011;8043;49.388;12.128;2024-01-16T22:04:31;5.33;;;4.35;;
15889;SDS011;8043;49.388;12.128;2024-01-16T22:09:34;3.37;;;1.90;;
15889;SDS011;8043;49.388;12.128;2024-01-16T22:14:37;3.35;;;2.45;;
15889;SDS011;8043;49.388;12.128;2024-01-16T22:19:41;5.97;;;3.37;;
15889;SDS011;8043;49.388;12.128;2024-01-16T22:24:44;6.70;;;3.22;;
15889;SDS011;8043;49.388;12.128;2024-01-16T22:29:48;5.95;;;2.83;;
15889;SDS011;8043;49.388;12.128;2024-01-16T22:34:50;2.77;;;2.50;;
15889;SDS011;8043;49.388;12.128;2024-01-16T22:39:53;4.30;;;3.75;;
15889;SDS011;8043;49.388;12.128;2024-01-16T22:44:56;2.45;;;2.35;;
15889;SDS011;8043;49.388;12.128;2024-01-16T22:49:59;2.80;;;2.25;;
15889;SDS011;8043;49.388;12.128;2024-01-16T22:55:04;6.15;;;3.75;;
15889;SDS011;8043;49.388;12.128;2024-01-16T23:00:07;7.35;;;4.17;;
15889;SDS011;8043;49.388;12.128;2024-01-16T23:05:15;4.12;;;3.47;;
15889;SDS011;8043;49.388;12.128;2024-01-16T23:10:20;3.12;;;2.77;;
15889;SDS011;8043;49.388;12.128;2024-01-16T23:15:23;4.03;;;3.62;;
15889;SDS011;8043;49.388;12.128;2024-01-16T23:20:25;6.17;;;4.35;;
15889;SDS011;8043;49.388;12.128;2024-01-16T23:25:31;5.70;;;3.25;;
15889;SDS011;8043;49.388;12.128;2024-01-16T23:30:35;8.33;;;4.12;;
15889;SDS011;8043;49.388;12.128;2024-01-16T23:35:37;3.02;;;2.75;;
15889;SDS011;8043;49.388;12.128;2024-01-16T23:40:42;7.10;;;3.87;;
15889;SDS011;8043;49.388;12.128;2024-01-16T23:45:45;6.15;;;2.83;;
15889;SDS011;8043;49.388;12.128;2024-01-16T23:50:48;5.80;;;3.80;;
15889;SDS011;8043;49.388;12.128;2024-01-16T23:55:53;6.08;;;4.42;;
